Latest Weather Observations for Sheffield

IDT60801

Issued at 11:31 am EST Tuesday 14 July 2020 (issued every 10 minutes, with the page automatically refreshed every 10 minutes)

About weather observations | Map of weather stations | Latest weather observations for TAS | Other Formats
Station Details ID: 091291 Name: SHEFFIELD SCHOOL FARM Lat: -41.39 Lon: 146.32 Height: 294.2 m
Data from the previous 72 hours. | See also: Recent months at Sheffield
Date/Time
EST
Temp
°C
App
Temp
°C
Dew
Point
°C
Rel
Hum
%
Delta-T
°C
Wind Press
QNH
hPa
Press
MSL
hPa
Rain since
9am
mm
Dir  Spd
km/h
Gust
km/h
Spd
kts
Gust
kts
14/11:30am 8.1 3.5 3.8 74 1.9 ESE 17 22 9 12 - - 0.0
14/11:00am 7.2 1.9 2.9 74 1.8 ESE 20 28 11 15 - - 0.0
14/10:30am 7.0 2.7 3.4 78 1.5 ESE 15 19 8 10 - - 0.0
14/10:00am 5.9 2.3 3.1 82 1.2 SE 11 15 6 8 - - 0.0
14/09:30am 5.0 1.8 3.2 88 0.8 SE 9 13 5 7 - - 0.0
14/09:00am 3.3 0.1 3.0 98 0.1 SE 9 9 5 5 - - 0.2
14/08:30am 2.9 0.6 2.8 99 0.0 SE 4 6 2 3 - - 0.0
14/08:00am 1.9 -1.5 1.8 99 0.0 SSE 9 11 5 6 - - 0.0
14/07:30am 1.3 -1.8 1.2 99 0.0 SSE 7 9 4 5 - - 0.0
14/07:00am 1.2 -1.9 1.1 99 0.0 SSE 7 11 4 6 - - 0.0
14/06:30am 1.7 -1.2 1.6 99 0.0 SSE 6 11 3 6 - - 0.0
14/06:00am 1.4 -1.5 1.3 99 0.0 SSW 6 7 3 4 - - 0.0
14/05:30am 1.0 -2.2 0.9 99 0.0 ESE 7 11 4 6 - - 0.0
14/05:00am 0.2 -2.1 0.1 99 0.0 SE 2 4 1 2 - - 0.0
14/04:30am 0.2 -3.1 0.1 99 0.0 WSW 7 9 4 5 - - 0.0
14/04:00am 0.2 -2.5 0.1 99 0.0 WSW 4 7 2 4 - - 0.0
14/03:30am 0.9 -2.1 0.8 99 0.0 W 6 7 3 4 - - 0.0
14/03:00am 2.4 0.8 2.3 99 0.0 CALM 0 0 0 0 - - 0.0
14/02:30am 1.9 -0.6 1.8 99 0.0 SSE 4 4 2 2 - - 0.0
14/02:00am 3.1 -0.1 3.0 99 0.0 SW 9 13 5 7 - - 0.0
14/01:30am 2.4 -0.6 2.0 97 0.2 SW 7 11 4 6 - - 0.0
14/01:00am 2.6 0.2 2.0 96 0.2 SSW 4 7 2 4 - - 0.0
14/12:30am 3.9 1.3 3.3 96 0.2 S 6 7 3 4 - - 0.0
14/12:00am 3.2 1.3 2.9 98 0.1 SSW 2 4 1 2 - - 0.0
 
Date/Time
EST
Temp
°C
App
Temp
°C
Dew
Point
°C
Rel
Hum
%
Delta-T
°C
Wind Press
QNH
hPa
Press
MSL
hPa
Rain since
9am
mm
Dir  Spd
km/h
Gust
km/h
Spd
kts
Gust
kts
13/11:30pm 3.7 1.0 2.7 93 0.4 SE 6 6 3 3 - - 0.0
13/11:00pm 4.3 1.5 3.1 92 0.5 SE 7 9 4 5 - - 0.0
13/10:30pm 3.9 1.1 3.0 94 0.4 SSE 7 11 4 6 - - 0.0
13/10:00pm 3.9 0.6 2.7 92 0.5 SE 9 13 5 7 - - 0.0
13/09:30pm 4.8 0.5 3.3 90 0.6 SE 15 20 8 11 - - 0.0
13/09:00pm 4.7 -0.4 3.2 90 0.6 SE 19 22 10 12 - - 0.0
13/08:30pm 4.3 0.6 2.2 86 0.9 SE 11 15 6 8 - - 0.0
13/08:00pm 4.1 0.8 2.6 90 0.6 SE 9 11 5 6 - - 0.0
13/07:30pm 5.1 2.1 1.8 79 1.3 SE 7 9 4 5 - - 0.0
13/07:00pm 5.9 2.5 2.0 76 1.6 SSE 9 11 5 6 - - 0.0
13/06:30pm 6.2 3.2 2.3 76 1.6 SSE 7 7 4 4 - - 0.0
13/06:00pm 6.5 3.6 2.6 76 1.6 SSE 7 9 4 5 - - 0.0
13/05:30pm 6.4 3.5 2.7 77 1.6 SE 7 9 4 5 - - 0.0
13/05:00pm 7.1 4.2 2.8 74 1.8 SE 7 9 4 5 - - 0.0
13/04:30pm 8.3 4.0 3.4 71 2.1 ESE 15 19 8 10 - - 0.0
13/04:00pm 8.8 5.4 3.8 71 2.2 ESE 11 15 6 8 - - 0.0
13/03:30pm 9.6 5.4 3.6 66 2.7 ESE 15 20 8 11 - - 0.0
13/03:00pm 10.0 6.3 4.2 67 2.6 E 13 17 7 9 - - 0.0
13/02:30pm 9.7 5.1 3.7 66 2.7 E 17 20 9 11 - - 0.0
13/02:00pm 10.1 5.9 3.6 64 2.9 E 15 22 8 12 - - 0.0
13/01:30pm 10.2 5.6 3.9 65 2.8 E 17 22 9 12 - - 0.0
13/01:00pm 10.2 5.8 4.6 68 2.6 E 17 22 9 12 - - 0.0
13/12:30pm 9.6 4.7 4.0 68 2.5 E 19 24 10 13 - - 0.0
13/12:00pm 9.4 4.6 4.4 71 2.3 E 19 26 10 14 - - 0.0
13/11:30am 9.2 4.7 4.2 71 2.2 ESE 17 22 9 12 - - 0.0
13/11:00am 8.8 3.8 3.4 69 2.4 ESE 19 26 10 14 - - 0.0
13/10:30am 8.6 5.9 3.8 72 2.1 ESE 7 11 4 6 - - 0.0
13/10:00am 8.0 5.9 3.8 75 1.8 E 4 7 2 4 - - 0.0
13/09:30am 6.1 3.5 3.4 83 1.2 SE 6 6 3 3 - - 0.0
13/09:00am 5.2 4.1 5.1 99 0.0 CALM 0 4 0 2 - - 0.2
13/08:30am 2.3 0.7 2.2 99 0.0 CALM 0 4 0 2 - - 0.0
13/08:00am 1.5 -1.6 1.4 99 0.0 SSW 7 9 4 5 - - 0.0
13/07:30am 2.0 -0.4 1.9 99 0.0 S 4 6 2 3 - - 0.0
13/07:00am 2.0 -1.0 1.9 99 0.0 SW 7 7 4 4 - - 0.0
13/06:30am 2.5 0.1 2.4 99 0.0 SW 4 6 2 3 - - 0.0
13/06:00am 1.8 -0.3 1.7 99 0.0 SE 2 4 1 2 - - 0.0
13/05:30am 2.8 0.1 2.7 99 0.0 SW 6 6 3 3 - - 0.0
13/05:00am 3.0 0.6 2.4 96 0.2 S 4 6 2 3 - - 0.0
13/04:30am 3.5 1.3 3.1 97 0.2 SSE 4 4 2 2 - - 0.0
13/04:00am 3.2 0.5 2.9 98 0.1 S 6 9 3 5 - - 0.0
13/03:30am 3.3 1.1 3.2 99 0.0 ESE 4 4 2 2 - - 0.0
13/03:00am 3.0 0.3 2.4 96 0.2 ESE 6 6 3 3 - - 0.0
13/02:30am 3.5 0.7 3.2 98 0.1 SSE 7 9 4 5 - - 0.0
13/02:00am 3.4 1.2 3.3 99 0.0 SSE 4 6 2 3 - - 0.0
13/01:30am 3.3 0.7 3.0 98 0.1 SSE 6 6 3 3 - - 0.0
13/01:00am 4.1 1.5 3.2 94 0.4 SSE 6 7 3 4 - - 0.0
13/12:30am 4.0 1.4 3.1 94 0.4 SSE 6 6 3 3 - - 0.0
13/12:00am 4.2 1.6 3.0 92 0.5 SE 6 7 3 4 - - 0.0
 
Date/Time
EST
Temp
°C
App
Temp
°C
Dew
Point
°C
Rel
Hum
%
Delta-T
°C
Wind Press
QNH
hPa
Press
MSL
hPa
Rain since
9am
mm
Dir  Spd
km/h
Gust
km/h
Spd
kts
Gust
kts
12/11:30pm 4.9 2.8 4.0 94 0.4 SE 4 6 2 3 - - 0.0
12/11:00pm 4.7 1.9 3.0 89 0.7 SE 7 9 4 5 - - 0.0
12/10:30pm 5.2 2.1 3.5 89 0.7 ESE 9 13 5 7 - - 0.0
12/10:00pm 6.1 1.6 4.4 89 0.7 ESE 17 22 9 12 - - 0.0
12/09:30pm 6.2 1.7 4.4 88 0.8 ESE 17 20 9 11 - - 0.0
12/09:00pm 6.4 2.0 4.7 89 0.8 ESE 17 24 9 13 - - 0.0
12/08:30pm 5.4 2.4 3.9 90 0.6 ESE 9 13 5 7 - - 0.0
12/08:00pm 6.0 2.6 4.0 87 0.9 SSE 11 13 6 7 - - 0.0
12/07:30pm 6.6 4.4 3.6 81 1.3 ESE 4 7 2 4 - - 0.0
12/07:00pm 6.8 5.2 4.3 84 1.1 ESE 2 6 1 3 - - 0.0
12/06:30pm 6.6 3.8 3.4 80 1.4 SE 7 13 4 7 - - 0.0
12/06:00pm 7.3 4.3 4.1 80 1.4 SE 9 11 5 6 - - 0.0
12/05:30pm 7.8 5.4 5.1 83 1.2 SE 7 11 4 6 - - 0.0
12/05:00pm 8.3 5.1 5.2 81 1.4 ESE 11 13 6 7 - - 0.0
12/04:30pm 8.9 6.3 6.2 83 1.3 ESE 9 11 5 6 - - 0.0
12/04:00pm 10.1 7.2 6.3 77 1.8 ESE 11 15 6 8 - - 0.0
12/03:30pm 11.0 7.7 6.4 73 2.2 ESE 13 17 7 9 - - 0.0
12/03:00pm 11.9 8.9 5.8 66 2.9 ESE 11 15 6 8 - - 0.0
12/02:30pm 11.8 8.8 5.9 67 2.8 ESE 11 17 6 9 - - 0.0
12/02:00pm 11.7 8.7 5.8 67 2.8 ESE 11 17 6 9 - - 0.0
12/01:30pm 11.7 9.1 6.2 69 2.6 ESE 9 13 5 7 - - 0.0
12/01:00pm 11.2 8.2 5.9 70 2.5 ESE 11 17 6 9 - - 0.0
12/12:30pm 10.4 7.2 6.9 79 1.7 ESE 13 17 7 9 - - 0.0
12/12:00pm 9.6 7.0 6.1 79 1.6 ESE 9 13 5 7 - - 0.0
12/11:30am 9.2 5.9 6.3 82 1.4 ESE 13 17 7 9 - - 0.0
12/11:00am 8.7 5.7 5.8 82 1.3 ESE 11 15 6 8 - - 0.0
12/10:30am 8.1 6.0 5.9 86 1.0 ESE 6 9 3 5 - - 0.0
12/10:00am 7.4 5.6 7.0 97 0.2 ESE 6 7 3 4 - - 0.0
12/09:30am 6.1 4.4 6.0 99 0.0 SE 4 6 2 3 - - 0.0
12/09:00am 5.7 4.7 5.6 99 0.0 CALM 0 2 0 1 - - 0.0
12/08:30am 4.9 3.0 4.8 99 0.0 S 4 9 2 5 - - 0.0
12/08:00am 5.4 3.2 5.3 99 0.0 SSW 6 9 3 5 - - 0.0
12/07:30am 4.9 3.4 4.8 99 0.0 SSW 2 4 1 2 - - 0.0
12/07:00am 5.1 3.6 5.0 99 0.0 SSW 2 4 1 2 - - 0.0
12/06:30am 5.0 3.5 4.9 99 0.0 SE 2 6 1 3 - - 0.0
12/06:00am 4.3 2.6 4.2 99 0.0 S 2 4 1 2 - - 0.0
12/05:30am 5.1 4.0 5.0 99 0.0 CALM 0 0 0 0 - - 0.0
12/05:00am 5.5 4.5 5.4 99 0.0 CALM 0 0 0 0 - - 0.0
12/04:30am 5.5 4.5 5.4 99 0.0 CALM 0 0 0 0 - - 0.0
12/04:00am 5.6 4.6 5.5 99 0.0 CALM 0 0 0 0 - - 0.0
12/03:30am 5.7 4.7 5.6 99 0.0 CALM 0 0 0 0 - - 0.0
12/03:00am 5.9 4.9 5.8 99 0.0 CALM 0 0 0 0 - - 0.0
12/02:30am 6.2 5.3 6.1 99 0.0 CALM 0 0 0 0 - - 0.0
12/02:00am 6.2 5.3 6.1 99 0.0 CALM 0 0 0 0 - - 0.0
12/01:30am 6.5 5.7 6.4 99 0.0 CALM 0 0 0 0 - - 0.0
12/01:00am 6.6 5.8 6.5 99 0.0 CALM 0 0 0 0 - - 0.0
12/12:30am 6.6 5.8 6.3 98 0.1 CALM 0 0 0 0 - - 0.0
12/12:00am 6.7 4.6 5.8 94 0.4 WSW 6 6 3 3 - - 0.0
 
Date/Time
EST
Temp
°C
App
Temp
°C
Dew
Point
°C
Rel
Hum
%
Delta-T
°C
Wind Press
QNH
hPa
Press
MSL
hPa
Rain since
9am
mm
Dir  Spd
km/h
Gust
km/h
Spd
kts
Gust
kts
11/11:30pm 7.2 5.2 6.1 93 0.5 SW 6 9 3 5 - - 0.0
11/11:00pm 6.8 5.9 6.1 95 0.3 CALM 0 0 0 0 - - 0.0
11/10:30pm 7.3 6.5 6.6 95 0.3 CALM 0 0 0 0 - - 0.0
11/10:00pm 7.2 6.4 6.5 95 0.3 CALM 0 4 0 2 - - 0.0
11/09:30pm 7.3 6.2 7.0 98 0.1 SW 2 4 1 2 - - 0.0
11/09:00pm 7.1 4.7 7.0 99 0.0 SW 9 11 5 6 - - 0.0
11/08:30pm 7.3 6.5 6.6 95 0.3 CALM 0 0 0 0 - - 0.0
11/08:00pm 7.7 6.9 6.5 92 0.6 CALM 0 2 0 1 - - 0.0
11/07:30pm 7.6 6.3 7.5 99 0.0 SW 4 6 2 3 - - 0.0
11/07:00pm 7.0 6.2 6.7 98 0.1 CALM 0 0 0 0 - - 0.0
11/06:30pm 7.2 6.4 6.5 95 0.3 CALM 0 0 0 0 - - 0.0
11/06:00pm 7.7 6.9 6.3 91 0.6 CALM 0 0 0 0 - - 0.0
11/05:30pm 8.5 7.8 6.8 89 0.8 CALM 0 0 0 0 - - 0.0
11/05:00pm 8.7 7.8 6.2 84 1.2 CALM 0 0 0 0 - - 0.0
11/04:30pm 9.2 8.3 6.1 81 1.4 CALM 0 0 0 0 - - 0.0
11/04:00pm 10.0 8.9 6.7 80 1.6 NNW 2 4 1 2 - - 0.0
11/03:30pm 10.0 9.0 7.3 83 1.3 NNW 2 4 1 2 - - 0.0
11/03:00pm 10.3 9.3 7.2 81 1.5 NW 2 6 1 3 - - 0.0
11/02:30pm 10.6 9.4 6.4 75 2.0 W 2 4 1 2 - - 0.0
11/02:00pm 10.5 9.6 5.9 73 2.2 CALM 0 4 0 2 - - 0.0
11/01:30pm 10.4 9.3 5.2 70 2.4 CALM 0 0 0 0 - - 0.0
11/01:00pm 10.6 9.2 5.6 71 2.3 W 2 4 1 2 - - 0.0
11/12:30pm 10.5 9.3 6.3 75 2.0 WNW 2 4 1 2 - - 0.0
11/12:00pm 9.5 8.2 6.0 79 1.6 WSW 2 4 1 2 - - 0.0

Other formats

Comma delimited format used in spreadsheet applications
http://www.bom.gov.au/fwo/IDT60801/IDT60801.94955.axf

JavaScript Object Notation format (JSON) in row-major order
http://www.bom.gov.au/fwo/IDT60801/IDT60801.94955.json

Data quality

Most of these data are generated automatically and are frequently updated. Quality checks on data are not normally performed. It is possible for incorrect values to appear. Refer to information at About Latest Weather Observations and please check the disclaimer before using these data.